sensor_id;sensor_type;location;lat;lon;timestamp;P1;durP1;ratioP1;P2;durP2;ratioP2
21507;SDS011;10915;54.352;9.074;2022-12-20T00:00:53;20.40;;;13.87;;
21507;SDS011;10915;54.352;9.074;2022-12-20T00:03:19;19.13;;;12.83;;
21507;SDS011;10915;54.352;9.074;2022-12-20T00:05:45;17.00;;;12.97;;
21507;SDS011;10915;54.352;9.074;2022-12-20T00:08:11;18.70;;;12.53;;
21507;SDS011;10915;54.352;9.074;2022-12-20T00:10:38;17.40;;;12.50;;
21507;SDS011;10915;54.352;9.074;2022-12-20T00:13:08;18.87;;;12.70;;
21507;SDS011;10915;54.352;9.074;2022-12-20T00:15:35;17.63;;;12.30;;
21507;SDS011;10915;54.352;9.074;2022-12-20T00:18:01;18.30;;;12.97;;
21507;SDS011;10915;54.352;9.074;2022-12-20T00:20:27;21.60;;;13.37;;
21507;SDS011;10915;54.352;9.074;2022-12-20T00:22:53;21.20;;;14.00;;
21507;SDS011;10915;54.352;9.074;2022-12-20T00:25:18;18.20;;;12.70;;
21507;SDS011;10915;54.352;9.074;2022-12-20T00:27:45;21.70;;;13.67;;
21507;SDS011;10915;54.352;9.074;2022-12-20T00:30:11;18.17;;;13.70;;
21507;SDS011;10915;54.352;9.074;2022-12-20T00:32:37;23.60;;;14.30;;
21507;SDS011;10915;54.352;9.074;2022-12-20T00:35:03;21.93;;;14.57;;
21507;SDS011;10915;54.352;9.074;2022-12-20T00:37:29;20.07;;;14.10;;
21507;SDS011;10915;54.352;9.074;2022-12-20T00:39:55;26.10;;;14.57;;
21507;SDS011;10915;54.352;9.074;2022-12-20T00:42:21;21.63;;;14.53;;
21507;SDS011;10915;54.352;9.074;2022-12-20T00:44:46;21.60;;;14.07;;
21507;SDS011;10915;54.352;9.074;2022-12-20T00:47:12;24.37;;;14.47;;
21507;SDS011;10915;54.352;9.074;2022-12-20T00:49:39;22.17;;;14.43;;
21507;SDS011;10915;54.352;9.074;2022-12-20T00:52:05;20.97;;;14.63;;
21507;SDS011;10915;54.352;9.074;2022-12-20T00:54:31;23.43;;;14.33;;
21507;SDS011;10915;54.352;9.074;2022-12-20T00:56:57;22.20;;;13.47;;
21507;SDS011;10915;54.352;9.074;2022-12-20T00:59:23;20.57;;;14.10;;
21507;SDS011;10915;54.352;9.074;2022-12-20T01:01:49;19.50;;;13.20;;
21507;SDS011;10915;54.352;9.074;2022-12-20T01:04:15;24.87;;;13.90;;
21507;SDS011;10915;54.352;9.074;2022-12-20T01:06:41;26.03;;;14.17;;
21507;SDS011;10915;54.352;9.074;2022-12-20T01:09:07;21.73;;;14.13;;
21507;SDS011;10915;54.352;9.074;2022-12-20T01:11:35;24.80;;;14.20;;
21507;SDS011;10915;54.352;9.074;2022-12-20T01:14:04;22.10;;;14.70;;
21507;SDS011;10915;54.352;9.074;2022-12-20T01:16:40;24.13;;;13.30;;
21507;SDS011;10915;54.352;9.074;2022-12-20T01:19:10;21.87;;;14.17;;
21507;SDS011;10915;54.352;9.074;2022-12-20T01:21:38;22.60;;;13.13;;
21507;SDS011;10915;54.352;9.074;2022-12-20T01:24:08;18.97;;;13.40;;
21507;SDS011;10915;54.352;9.074;2022-12-20T01:26:38;20.47;;;13.87;;
21507;SDS011;10915;54.352;9.074;2022-12-20T01:29:04;20.27;;;13.77;;
21507;SDS011;10915;54.352;9.074;2022-12-20T01:31:30;22.53;;;14.17;;
21507;SDS011;10915;54.352;9.074;2022-12-20T01:33:55;16.93;;;13.37;;
21507;SDS011;10915;54.352;9.074;2022-12-20T01:36:23;21.70;;;13.33;;
21507;SDS011;10915;54.352;9.074;2022-12-20T01:38:55;21.70;;;13.00;;
21507;SDS011;10915;54.352;9.074;2022-12-20T01:41:22;20.13;;;13.30;;
21507;SDS011;10915;54.352;9.074;2022-12-20T01:43:49;18.87;;;12.07;;
21507;SDS011;10915;54.352;9.074;2022-12-20T01:46:17;21.77;;;12.83;;
21507;SDS011;10915;54.352;9.074;2022-12-20T01:48:47;20.07;;;12.30;;
21507;SDS011;10915;54.352;9.074;2022-12-20T01:51:19;16.97;;;11.83;;
21507;SDS011;10915;54.352;9.074;2022-12-20T01:53:51;17.87;;;11.73;;
21507;SDS011;10915;54.352;9.074;2022-12-20T01:56:25;18.87;;;11.07;;
21507;SDS011;10915;54.352;9.074;2022-12-20T01:58:51;19.70;;;11.90;;
21507;SDS011;10915;54.352;9.074;2022-12-20T02:01:19;20.17;;;11.90;;
21507;SDS011;10915;54.352;9.074;2022-12-20T02:03:47;20.10;;;11.67;;
21507;SDS011;10915;54.352;9.074;2022-12-20T02:06:18;17.40;;;10.93;;
21507;SDS011;10915;54.352;9.074;2022-12-20T02:08:47;16.33;;;10.43;;
21507;SDS011;10915;54.352;9.074;2022-12-20T02:17:21;16.30;;;10.30;;
21507;SDS011;10915;54.352;9.074;2022-12-20T02:25:52;15.67;;;10.27;;
21507;SDS011;10915;54.352;9.074;2022-12-20T02:31:26;14.87;;;10.00;;
21507;SDS011;10915;54.352;9.074;2022-12-20T02:33:57;18.13;;;11.07;;
21507;SDS011;10915;54.352;9.074;2022-12-20T02:36:24;15.37;;;9.97;;
21507;SDS011;10915;54.352;9.074;2022-12-20T02:38:50;21.83;;;10.47;;
21507;SDS011;10915;54.352;9.074;2022-12-20T02:43:48;17.10;;;10.37;;
21507;SDS011;10915;54.352;9.074;2022-12-20T02:46:50;16.27;;;9.70;;
21507;SDS011;10915;54.352;9.074;2022-12-20T02:49:20;12.80;;;9.73;;
21507;SDS011;10915;54.352;9.074;2022-12-20T02:51:50;17.07;;;9.43;;
21507;SDS011;10915;54.352;9.074;2022-12-20T02:54:18;17.77;;;9.93;;
21507;SDS011;10915;54.352;9.074;2022-12-20T02:59:20;14.17;;;9.83;;
21507;SDS011;10915;54.352;9.074;2022-12-20T03:01:50;14.60;;;9.80;;
21507;SDS011;10915;54.352;9.074;2022-12-20T03:04:19;14.47;;;10.17;;
21507;SDS011;10915;54.352;9.074;2022-12-20T03:07:01;14.70;;;9.43;;
21507;SDS011;10915;54.352;9.074;2022-12-20T03:09:32;16.43;;;10.03;;
21507;SDS011;10915;54.352;9.074;2022-12-20T03:12:00;12.27;;;9.27;;
21507;SDS011;10915;54.352;9.074;2022-12-20T03:14:27;15.27;;;9.80;;
21507;SDS011;10915;54.352;9.074;2022-12-20T03:16:52;14.97;;;9.33;;
21507;SDS011;10915;54.352;9.074;2022-12-20T03:19:18;15.53;;;9.37;;
21507;SDS011;10915;54.352;9.074;2022-12-20T03:21:44;15.87;;;10.13;;
21507;SDS011;10915;54.352;9.074;2022-12-20T03:24:10;16.80;;;9.60;;
21507;SDS011;10915;54.352;9.074;2022-12-20T03:26:37;15.53;;;10.30;;
21507;SDS011;10915;54.352;9.074;2022-12-20T03:29:04;16.33;;;9.47;;
21507;SDS011;10915;54.352;9.074;2022-12-20T03:31:30;12.13;;;9.30;;
21507;SDS011;10915;54.352;9.074;2022-12-20T03:33:56;13.70;;;9.50;;
21507;SDS011;10915;54.352;9.074;2022-12-20T03:36:22;13.80;;;8.80;;
21507;SDS011;10915;54.352;9.074;2022-12-20T03:38:51;19.67;;;9.90;;
21507;SDS011;10915;54.352;9.074;2022-12-20T03:41:18;15.47;;;9.33;;
21507;SDS011;10915;54.352;9.074;2022-12-20T03:43:45;16.03;;;9.13;;
21507;SDS011;10915;54.352;9.074;2022-12-20T03:46:12;15.53;;;9.30;;
21507;SDS011;10915;54.352;9.074;2022-12-20T03:48:38;16.60;;;9.47;;
21507;SDS011;10915;54.352;9.074;2022-12-20T03:51:04;13.10;;;9.37;;
21507;SDS011;10915;54.352;9.074;2022-12-20T03:53:30;16.27;;;8.90;;
21507;SDS011;10915;54.352;9.074;2022-12-20T03:55:55;15.93;;;8.83;;
21507;SDS011;10915;54.352;9.074;2022-12-20T03:58:22;15.03;;;8.67;;
21507;SDS011;10915;54.352;9.074;2022-12-20T04:00:47;15.30;;;8.10;;
21507;SDS011;10915;54.352;9.074;2022-12-20T04:03:13;13.60;;;9.87;;
21507;SDS011;10915;54.352;9.074;2022-12-20T04:05:39;14.80;;;9.40;;
21507;SDS011;10915;54.352;9.074;2022-12-20T04:08:05;19.40;;;8.53;;
21507;SDS011;10915;54.352;9.074;2022-12-20T04:10:31;15.07;;;8.67;;
21507;SDS011;10915;54.352;9.074;2022-12-20T04:12:56;14.20;;;8.60;;
21507;SDS011;10915;54.352;9.074;2022-12-20T04:15:22;12.87;;;8.40;;
21507;SDS011;10915;54.352;9.074;2022-12-20T04:17:48;9.77;;;7.60;;
21507;SDS011;10915;54.352;9.074;2022-12-20T04:20:14;15.27;;;8.43;;
21507;SDS011;10915;54.352;9.074;2022-12-20T04:22:47;9.33;;;7.57;;
21507;SDS011;10915;54.352;9.074;2022-12-20T04:25:15;11.23;;;7.80;;
21507;SDS011;10915;54.352;9.074;2022-12-20T04:27:42;11.67;;;8.57;;
21507;SDS011;10915;54.352;9.074;2022-12-20T04:30:09;12.23;;;8.63;;
21507;SDS011;10915;54.352;9.074;2022-12-20T04:32:35;13.30;;;8.73;;
21507;SDS011;10915;54.352;9.074;2022-12-20T04:35:01;18.00;;;9.77;;
21507;SDS011;10915;54.352;9.074;2022-12-20T04:37:28;14.00;;;8.77;;
21507;SDS011;10915;54.352;9.074;2022-12-20T04:39:54;11.80;;;8.73;;
21507;SDS011;10915;54.352;9.074;2022-12-20T04:42:21;15.40;;;8.33;;
21507;SDS011;10915;54.352;9.074;2022-12-20T04:44:47;13.30;;;7.57;;
21507;SDS011;10915;54.352;9.074;2022-12-20T04:47:13;13.73;;;8.03;;
21507;SDS011;10915;54.352;9.074;2022-12-20T04:49:38;11.90;;;8.60;;
21507;SDS011;10915;54.352;9.074;2022-12-20T04:52:04;13.43;;;8.80;;
21507;SDS011;10915;54.352;9.074;2022-12-20T04:54:48;12.50;;;8.63;;
21507;SDS011;10915;54.352;9.074;2022-12-20T04:57:14;13.63;;;7.93;;
21507;SDS011;10915;54.352;9.074;2022-12-20T04:59:40;15.43;;;8.67;;
21507;SDS011;10915;54.352;9.074;2022-12-20T05:02:06;12.53;;;8.90;;
21507;SDS011;10915;54.352;9.074;2022-12-20T05:04:32;16.90;;;9.60;;
21507;SDS011;10915;54.352;9.074;2022-12-20T05:06:57;14.67;;;9.30;;
21507;SDS011;10915;54.352;9.074;2022-12-20T05:09:23;14.43;;;9.40;;
21507;SDS011;10915;54.352;9.074;2022-12-20T05:11:49;16.60;;;9.53;;
21507;SDS011;10915;54.352;9.074;2022-12-20T05:14:15;17.17;;;10.47;;
21507;SDS011;10915;54.352;9.074;2022-12-20T05:16:40;19.47;;;10.87;;
21507;SDS011;10915;54.352;9.074;2022-12-20T05:19:06;15.97;;;9.70;;
21507;SDS011;10915;54.352;9.074;2022-12-20T05:21:31;15.07;;;10.00;;
21507;SDS011;10915;54.352;9.074;2022-12-20T05:24:17;16.03;;;10.37;;
21507;SDS011;10915;54.352;9.074;2022-12-20T05:27:01;15.63;;;9.80;;
21507;SDS011;10915;54.352;9.074;2022-12-20T05:29:27;14.27;;;9.20;;
21507;SDS011;10915;54.352;9.074;2022-12-20T05:31:53;19.90;;;11.07;;
21507;SDS011;10915;54.352;9.074;2022-12-20T05:34:18;15.60;;;11.03;;
21507;SDS011;10915;54.352;9.074;2022-12-20T05:36:44;17.00;;;10.80;;
21507;SDS011;10915;54.352;9.074;2022-12-20T05:39:10;17.07;;;10.53;;
21507;SDS011;10915;54.352;9.074;2022-12-20T05:41:36;17.27;;;11.07;;
21507;SDS011;10915;54.352;9.074;2022-12-20T05:44:02;19.73;;;11.60;;
21507;SDS011;10915;54.352;9.074;2022-12-20T05:46:28;15.73;;;11.17;;
21507;SDS011;10915;54.352;9.074;2022-12-20T05:48:54;16.40;;;10.73;;
21507;SDS011;10915;54.352;9.074;2022-12-20T05:51:19;15.07;;;11.00;;
21507;SDS011;10915;54.352;9.074;2022-12-20T05:53:45;16.80;;;10.40;;
21507;SDS011;10915;54.352;9.074;2022-12-20T05:56:11;16.90;;;11.10;;
21507;SDS011;10915;54.352;9.074;2022-12-20T05:58:37;13.83;;;10.43;;
21507;SDS011;10915;54.352;9.074;2022-12-20T06:01:04;19.10;;;10.70;;
21507;SDS011;10915;54.352;9.074;2022-12-20T06:03:31;20.03;;;11.30;;
21507;SDS011;10915;54.352;9.074;2022-12-20T06:05:57;15.03;;;10.23;;
21507;SDS011;10915;54.352;9.074;2022-12-20T06:08:23;16.23;;;11.40;;
21507;SDS011;10915;54.352;9.074;2022-12-20T06:10:49;18.10;;;10.93;;
21507;SDS011;10915;54.352;9.074;2022-12-20T06:13:15;16.23;;;10.40;;
21507;SDS011;10915;54.352;9.074;2022-12-20T06:15:41;17.87;;;10.97;;
21507;SDS011;10915;54.352;9.074;2022-12-20T06:18:06;18.27;;;10.37;;
21507;SDS011;10915;54.352;9.074;2022-12-20T06:20:33;15.90;;;11.03;;
21507;SDS011;10915;54.352;9.074;2022-12-20T06:22:59;17.70;;;10.60;;
21507;SDS011;10915;54.352;9.074;2022-12-20T06:25:25;19.43;;;10.77;;
21507;SDS011;10915;54.352;9.074;2022-12-20T06:27:51;19.60;;;10.67;;
21507;SDS011;10915;54.352;9.074;2022-12-20T06:30:17;16.20;;;10.33;;
21507;SDS011;10915;54.352;9.074;2022-12-20T06:32:44;14.40;;;10.30;;
21507;SDS011;10915;54.352;9.074;2022-12-20T06:35:09;18.07;;;10.90;;
21507;SDS011;10915;54.352;9.074;2022-12-20T06:37:35;16.47;;;10.00;;
21507;SDS011;10915;54.352;9.074;2022-12-20T06:40:04;15.97;;;10.53;;
21507;SDS011;10915;54.352;9.074;2022-12-20T06:42:31;16.43;;;10.57;;
21507;SDS011;10915;54.352;9.074;2022-12-20T06:44:57;19.90;;;10.80;;
21507;SDS011;10915;54.352;9.074;2022-12-20T06:47:23;14.37;;;10.30;;
21507;SDS011;10915;54.352;9.074;2022-12-20T06:49:48;14.93;;;10.67;;
21507;SDS011;10915;54.352;9.074;2022-12-20T06:52:14;18.30;;;10.83;;
21507;SDS011;10915;54.352;9.074;2022-12-20T06:54:40;15.87;;;10.53;;
21507;SDS011;10915;54.352;9.074;2022-12-20T06:57:05;19.23;;;12.63;;
21507;SDS011;10915;54.352;9.074;2022-12-20T06:59:31;17.73;;;10.63;;
21507;SDS011;10915;54.352;9.074;2022-12-20T07:01:57;17.03;;;10.87;;
21507;SDS011;10915;54.352;9.074;2022-12-20T07:04:22;14.90;;;11.27;;
21507;SDS011;10915;54.352;9.074;2022-12-20T07:06:48;15.67;;;10.33;;
21507;SDS011;10915;54.352;9.074;2022-12-20T07:09:14;14.67;;;10.53;;
21507;SDS011;10915;54.352;9.074;2022-12-20T07:11:40;13.97;;;9.83;;
21507;SDS011;10915;54.352;9.074;2022-12-20T07:14:07;16.30;;;11.00;;
21507;SDS011;10915;54.352;9.074;2022-12-20T07:16:33;14.10;;;10.17;;
21507;SDS011;10915;54.352;9.074;2022-12-20T07:18:59;16.77;;;11.03;;
21507;SDS011;10915;54.352;9.074;2022-12-20T07:21:25;14.23;;;10.00;;
21507;SDS011;10915;54.352;9.074;2022-12-20T07:23:51;12.47;;;9.30;;
21507;SDS011;10915;54.352;9.074;2022-12-20T07:26:19;14.07;;;10.13;;
21507;SDS011;10915;54.352;9.074;2022-12-20T07:28:45;14.80;;;10.73;;
21507;SDS011;10915;54.352;9.074;2022-12-20T07:31:11;17.03;;;10.83;;
21507;SDS011;10915;54.352;9.074;2022-12-20T07:33:37;14.30;;;10.80;;
21507;SDS011;10915;54.352;9.074;2022-12-20T07:36:04;15.47;;;10.17;;
21507;SDS011;10915;54.352;9.074;2022-12-20T07:38:31;13.27;;;10.57;;
21507;SDS011;10915;54.352;9.074;2022-12-20T07:40:57;13.80;;;10.20;;
21507;SDS011;10915;54.352;9.074;2022-12-20T07:43:23;14.70;;;10.30;;
21507;SDS011;10915;54.352;9.074;2022-12-20T07:45:52;19.83;;;10.60;;
21507;SDS011;10915;54.352;9.074;2022-12-20T07:48:22;16.33;;;11.57;;
21507;SDS011;10915;54.352;9.074;2022-12-20T07:50:50;15.60;;;11.20;;
21507;SDS011;10915;54.352;9.074;2022-12-20T07:53:17;15.97;;;10.77;;
21507;SDS011;10915;54.352;9.074;2022-12-20T07:55:44;18.50;;;12.20;;
21507;SDS011;10915;54.352;9.074;2022-12-20T07:58:09;16.90;;;12.37;;
21507;SDS011;10915;54.352;9.074;2022-12-20T08:00:36;19.40;;;13.27;;
21507;SDS011;10915;54.352;9.074;2022-12-20T08:03:07;17.33;;;12.13;;
21507;SDS011;10915;54.352;9.074;2022-12-20T08:05:37;18.63;;;12.07;;
21507;SDS011;10915;54.352;9.074;2022-12-20T08:08:06;17.07;;;12.63;;
21507;SDS011;10915;54.352;9.074;2022-12-20T08:10:32;18.87;;;13.10;;
21507;SDS011;10915;54.352;9.074;2022-12-20T08:12:59;17.53;;;12.63;;
21507;SDS011;10915;54.352;9.074;2022-12-20T08:15:24;20.47;;;13.57;;
21507;SDS011;10915;54.352;9.074;2022-12-20T08:17:52;20.23;;;13.17;;
21507;SDS011;10915;54.352;9.074;2022-12-20T08:20:18;18.67;;;13.47;;
21507;SDS011;10915;54.352;9.074;2022-12-20T08:22:44;19.93;;;13.87;;
21507;SDS011;10915;54.352;9.074;2022-12-20T08:25:10;21.03;;;13.83;;
21507;SDS011;10915;54.352;9.074;2022-12-20T08:27:36;17.37;;;13.63;;
21507;SDS011;10915;54.352;9.074;2022-12-20T08:30:02;19.23;;;14.53;;
21507;SDS011;10915;54.352;9.074;2022-12-20T08:32:28;19.03;;;13.87;;
21507;SDS011;10915;54.352;9.074;2022-12-20T08:34:54;17.83;;;14.20;;
21507;SDS011;10915;54.352;9.074;2022-12-20T08:37:19;19.10;;;13.47;;
21507;SDS011;10915;54.352;9.074;2022-12-20T08:39:45;20.67;;;14.23;;
21507;SDS011;10915;54.352;9.074;2022-12-20T08:42:11;19.80;;;14.27;;
21507;SDS011;10915;54.352;9.074;2022-12-20T08:44:37;20.73;;;14.37;;
21507;SDS011;10915;54.352;9.074;2022-12-20T08:47:02;18.53;;;14.47;;
21507;SDS011;10915;54.352;9.074;2022-12-20T08:49:28;16.67;;;13.53;;
21507;SDS011;10915;54.352;9.074;2022-12-20T08:51:54;21.07;;;15.27;;
21507;SDS011;10915;54.352;9.074;2022-12-20T08:54:20;18.13;;;13.93;;
21507;SDS011;10915;54.352;9.074;2022-12-20T08:56:45;18.83;;;14.70;;
21507;SDS011;10915;54.352;9.074;2022-12-20T08:59:11;22.33;;;14.93;;
21507;SDS011;10915;54.352;9.074;2022-12-20T09:01:37;20.87;;;15.13;;
21507;SDS011;10915;54.352;9.074;2022-12-20T09:04:03;17.97;;;13.97;;
21507;SDS011;10915;54.352;9.074;2022-12-20T09:06:28;20.23;;;15.03;;
21507;SDS011;10915;54.352;9.074;2022-12-20T09:08:54;20.63;;;14.80;;
21507;SDS011;10915;54.352;9.074;2022-12-20T09:11:22;19.07;;;15.03;;
21507;SDS011;10915;54.352;9.074;2022-12-20T09:13:49;20.47;;;14.90;;
21507;SDS011;10915;54.352;9.074;2022-12-20T09:16:18;21.83;;;15.27;;
21507;SDS011;10915;54.352;9.074;2022-12-20T09:18:50;20.00;;;14.97;;
21507;SDS011;10915;54.352;9.074;2022-12-20T09:21:17;18.03;;;15.13;;
21507;SDS011;10915;54.352;9.074;2022-12-20T09:23:43;18.17;;;14.47;;
21507;SDS011;10915;54.352;9.074;2022-12-20T09:26:10;16.67;;;12.67;;
21507;SDS011;10915;54.352;9.074;2022-12-20T09:28:39;18.97;;;14.10;;
21507;SDS011;10915;54.352;9.074;2022-12-20T09:31:06;16.10;;;13.53;;
21507;SDS011;10915;54.352;9.074;2022-12-20T09:33:33;21.00;;;14.70;;
21507;SDS011;10915;54.352;9.074;2022-12-20T09:35:59;16.17;;;12.40;;
21507;SDS011;10915;54.352;9.074;2022-12-20T09:38:26;17.83;;;13.47;;
21507;SDS011;10915;54.352;9.074;2022-12-20T09:40:53;18.57;;;13.27;;
21507;SDS011;10915;54.352;9.074;2022-12-20T09:43:22;17.23;;;13.27;;
21507;SDS011;10915;54.352;9.074;2022-12-20T09:45:53;17.03;;;12.37;;
21507;SDS011;10915;54.352;9.074;2022-12-20T09:48:25;17.83;;;12.17;;
21507;SDS011;10915;54.352;9.074;2022-12-20T09:56:29;18.47;;;13.00;;
21507;SDS011;10915;54.352;9.074;2022-12-20T09:59:07;16.33;;;12.93;;
21507;SDS011;10915;54.352;9.074;2022-12-20T10:01:37;17.97;;;12.60;;
21507;SDS011;10915;54.352;9.074;2022-12-20T10:04:11;17.87;;;12.23;;
21507;SDS011;10915;54.352;9.074;2022-12-20T10:20:26;21.40;;;14.03;;
21507;SDS011;10915;54.352;9.074;2022-12-20T10:25:47;18.43;;;13.73;;
21507;SDS011;10915;54.352;9.074;2022-12-20T10:28:15;19.23;;;15.20;;
21507;SDS011;10915;54.352;9.074;2022-12-20T10:30:42;22.77;;;15.90;;
21507;SDS011;10915;54.352;9.074;2022-12-20T10:33:21;22.07;;;15.83;;
21507;SDS011;10915;54.352;9.074;2022-12-20T10:35:48;24.13;;;15.73;;
21507;SDS011;10915;54.352;9.074;2022-12-20T10:38:15;20.37;;;16.73;;
21507;SDS011;10915;54.352;9.074;2022-12-20T10:43:27;19.60;;;15.97;;
21507;SDS011;10915;54.352;9.074;2022-12-20T10:46:04;22.57;;;16.60;;
21507;SDS011;10915;54.352;9.074;2022-12-20T10:48:33;19.83;;;15.83;;
21507;SDS011;10915;54.352;9.074;2022-12-20T10:53:26;23.70;;;15.93;;
21507;SDS011;10915;54.352;9.074;2022-12-20T10:56:03;19.93;;;16.07;;
21507;SDS011;10915;54.352;9.074;2022-12-20T11:01:39;22.60;;;17.20;;
21507;SDS011;10915;54.352;9.074;2022-12-20T11:04:26;22.47;;;16.87;;
21507;SDS011;10915;54.352;9.074;2022-12-20T11:07:00;23.43;;;16.80;;
21507;SDS011;10915;54.352;9.074;2022-12-20T11:09:37;21.47;;;17.30;;
21507;SDS011;10915;54.352;9.074;2022-12-20T11:14:41;19.77;;;16.63;;
21507;SDS011;10915;54.352;9.074;2022-12-20T11:17:28;22.17;;;18.20;;
21507;SDS011;10915;54.352;9.074;2022-12-20T11:33:37;16.27;;;13.73;;
21507;SDS011;10915;54.352;9.074;2022-12-20T11:38:41;15.17;;;12.57;;
21507;SDS011;10915;54.352;9.074;2022-12-20T11:54:49;14.50;;;10.10;;
21507;SDS011;10915;54.352;9.074;2022-12-20T11:57:28;16.03;;;9.97;;
21507;SDS011;10915;54.352;9.074;2022-12-20T12:00:00;13.60;;;9.97;;
21507;SDS011;10915;54.352;9.074;2022-12-20T12:02:32;13.23;;;9.00;;
21507;SDS011;10915;54.352;9.074;2022-12-20T12:05:09;12.50;;;9.03;;
21507;SDS011;10915;54.352;9.074;2022-12-20T12:07:39;14.87;;;9.10;;
21507;SDS011;10915;54.352;9.074;2022-12-20T12:12:44;12.77;;;8.17;;
21507;SDS011;10915;54.352;9.074;2022-12-20T12:15:17;9.60;;;7.30;;
21507;SDS011;10915;54.352;9.074;2022-12-20T12:17:55;14.03;;;8.13;;
21507;SDS011;10915;54.352;9.074;2022-12-20T12:23:30;12.43;;;7.97;;
21507;SDS011;10915;54.352;9.074;2022-12-20T12:29:00;11.77;;;7.27;;
21507;SDS011;10915;54.352;9.074;2022-12-20T12:31:36;14.33;;;7.83;;
21507;SDS011;10915;54.352;9.074;2022-12-20T12:45:06;10.67;;;7.00;;
21507;SDS011;10915;54.352;9.074;2022-12-20T12:47:44;11.47;;;7.83;;
21507;SDS011;10915;54.352;9.074;2022-12-20T12:50:23;12.90;;;8.17;;
21507;SDS011;10915;54.352;9.074;2022-12-20T12:52:56;13.53;;;8.70;;
21507;SDS011;10915;54.352;9.074;2022-12-20T13:03:14;12.17;;;8.03;;
21507;SDS011;10915;54.352;9.074;2022-12-20T13:05:51;13.63;;;8.37;;
21507;SDS011;10915;54.352;9.074;2022-12-20T13:08:17;13.63;;;7.70;;
21507;SDS011;10915;54.352;9.074;2022-12-20T13:11:11;13.43;;;7.77;;
21507;SDS011;10915;54.352;9.074;2022-12-20T13:14:09;11.67;;;7.40;;
21507;SDS011;10915;54.352;9.074;2022-12-20T13:16:42;14.67;;;7.60;;
21507;SDS011;10915;54.352;9.074;2022-12-20T13:22:32;13.13;;;8.10;;
21507;SDS011;10915;54.352;9.074;2022-12-20T13:30:00;14.23;;;7.60;;
21507;SDS011;10915;54.352;9.074;2022-12-20T13:35:28;9.33;;;7.03;;
21507;SDS011;10915;54.352;9.074;2022-12-20T13:40:37;10.47;;;6.67;;
21507;SDS011;10915;54.352;9.074;2022-12-20T13:43:05;11.27;;;6.43;;
21507;SDS011;10915;54.352;9.074;2022-12-20T13:51:12;11.47;;;7.20;;
21507;SDS011;10915;54.352;9.074;2022-12-20T13:54:03;11.60;;;6.33;;
21507;SDS011;10915;54.352;9.074;2022-12-20T14:01:50;12.70;;;6.50;;
21507;SDS011;10915;54.352;9.074;2022-12-20T14:04:18;13.17;;;6.87;;
21507;SDS011;10915;54.352;9.074;2022-12-20T14:06:51;11.03;;;6.87;;
21507;SDS011;10915;54.352;9.074;2022-12-20T14:09:30;11.30;;;6.73;;
21507;SDS011;10915;54.352;9.074;2022-12-20T14:12:03;12.37;;;6.93;;
21507;SDS011;10915;54.352;9.074;2022-12-20T14:14:35;10.03;;;7.10;;
21507;SDS011;10915;54.352;9.074;2022-12-20T14:19:45;12.50;;;8.07;;
21507;SDS011;10915;54.352;9.074;2022-12-20T14:22:11;12.13;;;7.73;;
21507;SDS011;10915;54.352;9.074;2022-12-20T14:24:41;13.30;;;8.40;;
21507;SDS011;10915;54.352;9.074;2022-12-20T14:27:11;15.23;;;8.00;;
21507;SDS011;10915;54.352;9.074;2022-12-20T14:29:38;13.13;;;8.87;;
21507;SDS011;10915;54.352;9.074;2022-12-20T14:32:05;9.80;;;8.23;;
21507;SDS011;10915;54.352;9.074;2022-12-20T14:34:41;15.20;;;9.90;;
21507;SDS011;10915;54.352;9.074;2022-12-20T14:40:00;15.57;;;9.60;;
21507;SDS011;10915;54.352;9.074;2022-12-20T14:42:37;15.23;;;9.70;;
21507;SDS011;10915;54.352;9.074;2022-12-20T14:45:25;15.30;;;10.03;;
21507;SDS011;10915;54.352;9.074;2022-12-20T14:48:04;13.13;;;9.77;;
21507;SDS011;10915;54.352;9.074;2022-12-20T14:50:37;12.47;;;9.53;;
21507;SDS011;10915;54.352;9.074;2022-12-20T14:53:14;13.67;;;11.00;;
21507;SDS011;10915;54.352;9.074;2022-12-20T14:55:44;14.37;;;10.40;;
21507;SDS011;10915;54.352;9.074;2022-12-20T15:03:54;18.30;;;10.67;;
21507;SDS011;10915;54.352;9.074;2022-12-20T15:06:31;13.37;;;10.40;;
21507;SDS011;10915;54.352;9.074;2022-12-20T15:09:07;14.07;;;10.40;;
21507;SDS011;10915;54.352;9.074;2022-12-20T15:11:33;13.87;;;10.50;;
21507;SDS011;10915;54.352;9.074;2022-12-20T15:14:00;15.13;;;10.87;;
21507;SDS011;10915;54.352;9.074;2022-12-20T15:16:28;12.73;;;10.70;;
21507;SDS011;10915;54.352;9.074;2022-12-20T15:18:59;14.77;;;10.63;;
21507;SDS011;10915;54.352;9.074;2022-12-20T15:24:03;15.53;;;10.87;;
21507;SDS011;10915;54.352;9.074;2022-12-20T15:26:33;14.33;;;10.97;;
21507;SDS011;10915;54.352;9.074;2022-12-20T15:29:00;14.73;;;11.90;;
21507;SDS011;10915;54.352;9.074;2022-12-20T15:31:26;16.60;;;11.67;;
21507;SDS011;10915;54.352;9.074;2022-12-20T15:33:53;18.13;;;12.63;;
21507;SDS011;10915;54.352;9.074;2022-12-20T15:36:23;17.30;;;12.40;;
21507;SDS011;10915;54.352;9.074;2022-12-20T15:38:50;19.10;;;13.40;;
21507;SDS011;10915;54.352;9.074;2022-12-20T15:41:22;16.87;;;13.30;;
21507;SDS011;10915;54.352;9.074;2022-12-20T15:43:51;18.83;;;12.27;;
21507;SDS011;10915;54.352;9.074;2022-12-20T15:46:20;19.20;;;13.70;;
21507;SDS011;10915;54.352;9.074;2022-12-20T15:48:47;20.20;;;13.87;;
21507;SDS011;10915;54.352;9.074;2022-12-20T15:53:56;18.30;;;14.10;;
21507;SDS011;10915;54.352;9.074;2022-12-20T15:56:24;20.73;;;15.20;;
21507;SDS011;10915;54.352;9.074;2022-12-20T15:58:51;27.43;;;16.03;;
21507;SDS011;10915;54.352;9.074;2022-12-20T16:01:17;20.73;;;15.43;;
21507;SDS011;10915;54.352;9.074;2022-12-20T16:03:49;19.63;;;15.37;;
21507;SDS011;10915;54.352;9.074;2022-12-20T16:06:15;22.27;;;16.80;;
21507;SDS011;10915;54.352;9.074;2022-12-20T16:08:41;24.40;;;17.00;;
21507;SDS011;10915;54.352;9.074;2022-12-20T16:11:13;22.33;;;16.30;;
21507;SDS011;10915;54.352;9.074;2022-12-20T16:13:49;23.57;;;17.77;;
21507;SDS011;10915;54.352;9.074;2022-12-20T16:16:16;23.17;;;17.13;;
21507;SDS011;10915;54.352;9.074;2022-12-20T16:18:43;21.57;;;17.63;;
21507;SDS011;10915;54.352;9.074;2022-12-20T16:21:25;23.53;;;18.10;;
21507;SDS011;10915;54.352;9.074;2022-12-20T16:23:55;22.10;;;17.77;;
21507;SDS011;10915;54.352;9.074;2022-12-20T16:26:22;24.33;;;19.70;;
21507;SDS011;10915;54.352;9.074;2022-12-20T16:28:50;23.07;;;18.97;;
21507;SDS011;10915;54.352;9.074;2022-12-20T16:31:24;30.00;;;19.93;;
21507;SDS011;10915;54.352;9.074;2022-12-20T16:34:02;23.57;;;18.67;;
21507;SDS011;10915;54.352;9.074;2022-12-20T16:36:30;23.97;;;18.90;;
21507;SDS011;10915;54.352;9.074;2022-12-20T16:38:57;30.57;;;20.43;;
21507;SDS011;10915;54.352;9.074;2022-12-20T16:41:24;29.67;;;21.93;;
21507;SDS011;10915;54.352;9.074;2022-12-20T16:43:52;27.77;;;21.43;;
21507;SDS011;10915;54.352;9.074;2022-12-20T16:46:20;30.77;;;22.20;;
21507;SDS011;10915;54.352;9.074;2022-12-20T16:48:47;28.67;;;23.17;;
21507;SDS011;10915;54.352;9.074;2022-12-20T16:51:20;33.03;;;23.90;;
21507;SDS011;10915;54.352;9.074;2022-12-20T16:53:53;34.53;;;25.93;;
21507;SDS011;10915;54.352;9.074;2022-12-20T16:56:24;33.97;;;24.00;;
21507;SDS011;10915;54.352;9.074;2022-12-20T16:58:50;35.67;;;25.93;;
21507;SDS011;10915;54.352;9.074;2022-12-20T17:01:21;37.80;;;27.03;;
21507;SDS011;10915;54.352;9.074;2022-12-20T17:03:48;37.57;;;27.80;;
21507;SDS011;10915;54.352;9.074;2022-12-20T17:06:15;42.00;;;28.40;;